Terminal Aerodrome Forecast
Issued by NWS Jackson, MS

Home | Current Version | Previous Version | Text Only | Print | Product List | Glossary On
Versions: 1 2 3 4 5 6 7 8 9 10 11 12
000
FTUS44 KMEG 312300
TAFTUP
TAF
KTUP 312330Z 0100/0124 04003KT P6SM BKN050 OVC100
      TEMPO 0109/0112 5SM BR
     FM011300 03003KT P6SM SCT050 SCT100
     FM011800 07005KT P6SM SCT050 SCT150=

USA.gov is the U.S. government's official web portal to all federal, state and local government web resources and services.